Time;durP1;ratioP1;P1;durP2;ratioP2;P2;SDS_P1;SDS_P2;PMS_P1;PMS_P2;Temp;Humidity;BMP_temperature;BMP_pressure;BME280_temperature;BME280_humidity;BME280_pressure;Samples;Min_cycle;Max_cycle;Signal;HPM_P1;HPM_P2
2021/11/21 00:01:17;;;;;;;13.07;10.57;;;12.70;75.90;;;;;;5053110;28;20094;-80
2021/11/21 00:03:43;;;;;;;13.65;10.93;;;12.70;75.90;;;;;;5036340;28;20021;-81
2021/11/21 00:06:08;;;;;;;13.55;10.68;;;12.70;75.90;;;;;;5070392;28;20029;-81
2021/11/21 00:08:34;;;;;;;13.73;10.27;;;12.70;75.90;;;;;;5036198;28;20056;-80
2021/11/21 00:11:01;;;;;;;13.63;11.05;;;12.70;75.90;;;;;;5054057;28;20041;-81
2021/11/21 00:13:26;;;;;;;12.80;9.82;;;12.70;75.90;;;;;;5052663;28;20555;-82
2021/11/21 00:15:53;;;;;;;12.20;9.57;;;12.70;75.90;;;;;;5053735;28;20036;-83
2021/11/21 00:18:18;;;;;;;13.20;10.23;;;12.70;75.90;;;;;;5053204;28;20028;-81
2021/11/21 00:20:45;;;;;;;12.70;9.77;;;12.70;75.90;;;;;;5070249;28;20033;-81
2021/11/21 00:23:11;;;;;;;12.82;9.73;;;12.70;76.00;;;;;;5052700;28;20074;-82
2021/11/21 00:25:37;;;;;;;13.27;9.85;;;12.70;76.00;;;;;;5052641;28;20029;-81
2021/11/21 00:28:03;;;;;;;11.95;9.32;;;12.70;76.00;;;;;;5053074;28;20146;-82
2021/11/21 00:30:32;;;;;;;12.57;9.80;;;12.70;76.00;;;;;;5052814;28;20098;-81
2021/11/21 00:32:59;;;;;;;13.32;9.45;;;12.70;76.00;;;;;;5053737;28;20531;-80
2021/11/21 00:35:25;;;;;;;11.82;9.55;;;12.70;76.00;;;;;;5052428;28;20053;-81
2021/11/21 00:37:52;;;;;;;12.52;9.88;;;12.70;76.00;;;;;;5052628;28;20049;-82
2021/11/21 00:40:20;;;;;;;13.68;10.10;;;12.60;76.00;;;;;;5052500;28;20040;-81
2021/11/21 00:42:46;;;;;;;12.32;9.55;;;12.60;76.00;;;;;;5052766;28;20032;-81
2021/11/21 00:45:12;;;;;;;11.68;9.02;;;12.60;76.00;;;;;;5036343;28;20112;-80
2021/11/21 00:47:40;;;;;;;11.70;9.32;;;12.60;76.00;;;;;;5053003;28;20492;-81
2021/11/21 00:50:09;;;;;;;11.07;9.30;;;12.60;76.00;;;;;;5052767;28;20029;-81
2021/11/21 00:52:35;;;;;;;12.02;9.38;;;12.60;76.00;;;;;;5052735;28;20478;-81
2021/11/21 00:55:11;;;;;;;11.07;8.75;;;12.60;76.00;;;;;;5052507;28;20021;-81
2021/11/21 00:57:39;;;;;;;11.85;9.43;;;12.60;76.00;;;;;;5053018;28;20103;-81
2021/11/21 01:00:09;;;;;;;11.65;8.90;;;12.60;76.00;;;;;;5053149;28;20038;-79
2021/11/21 01:02:37;;;;;;;12.25;9.13;;;12.60;76.00;;;;;;5053252;28;20033;-81
2021/11/21 01:05:05;;;;;;;12.68;10.00;;;12.60;76.70;;;;;;5073228;28;20167;-81
2021/11/21 01:07:30;;;;;;;10.80;8.32;;;12.60;76.00;;;;;;5057436;28;20033;-82
2021/11/21 01:09:57;;;;;;;11.65;9.32;;;12.60;76.00;;;;;;5056098;28;20385;-81
2021/11/21 01:12:23;;;;;;;11.50;9.05;;;12.60;76.00;;;;;;5056677;28;20139;-81
2021/11/21 01:14:48;;;;;;;10.48;8.15;;;12.60;76.10;;;;;;5056342;28;20560;-81
2021/11/21 01:17:14;;;;;;;12.43;9.40;;;12.60;76.10;;;;;;5057435;28;20036;-81
2021/11/21 01:19:43;;;;;;;11.60;9.18;;;12.60;76.10;;;;;;5056929;28;20139;-81
2021/11/21 01:22:10;;;;;;;12.15;9.40;;;12.50;76.00;;;;;;5057515;28;20043;-83
2021/11/21 01:24:36;;;;;;;11.38;8.50;;;12.50;76.00;;;;;;5056594;28;20373;-80
2021/11/21 01:27:02;;;;;;;11.95;9.02;;;12.50;76.00;;;;;;5039138;28;20124;-83
2021/11/21 01:29:28;;;;;;;10.60;8.40;;;12.50;76.00;;;;;;5056637;28;20032;-84
2021/11/21 01:31:53;;;;;;;11.13;8.70;;;12.60;76.20;;;;;;5056468;28;20032;-80
2021/11/21 01:34:19;;;;;;;11.10;8.80;;;12.60;76.10;;;;;;5055922;28;20087;-82
2021/11/21 01:36:45;;;;;;;11.48;8.68;;;12.50;76.10;;;;;;5055767;28;20040;-80
2021/11/21 01:39:11;;;;;;;10.65;8.75;;;12.50;76.10;;;;;;5055765;28;20067;-81
2021/11/21 01:41:37;;;;;;;10.70;8.80;;;12.50;76.10;;;;;;5055595;28;20037;-81
2021/11/21 01:44:04;;;;;;;11.65;8.82;;;12.50;76.10;;;;;;5055725;28;20035;-81
2021/11/21 01:46:38;;;;;;;12.20;9.00;;;12.50;76.10;;;;;;5055721;28;20070;-80
2021/11/21 01:49:05;;;;;;;11.45;8.68;;;12.50;76.20;;;;;;5056549;28;20163;-82
2021/11/21 01:51:31;;;;;;;11.48;8.60;;;12.50;76.10;;;;;;5055734;28;20036;-80
2021/11/21 01:53:57;;;;;;;10.52;8.32;;;12.50;76.20;;;;;;5055600;28;20385;-81
2021/11/21 01:56:26;;;;;;;12.60;9.55;;;12.50;76.10;;;;;;5056891;28;20041;-82
2021/11/21 01:58:56;;;;;;;11.30;8.93;;;12.50;76.20;;;;;;5055729;28;20029;-81
2021/11/21 02:01:23;;;;;;;11.35;8.95;;;12.50;76.20;;;;;;5056155;28;20064;-82
2021/11/21 02:03:50;;;;;;;9.65;7.45;;;12.50;76.20;;;;;;5056288;28;20083;-84
2021/11/21 02:06:16;;;;;;;10.68;8.40;;;12.50;76.10;;;;;;5055755;28;20033;-81
2021/11/21 02:08:42;;;;;;;10.50;8.38;;;12.50;76.80;;;;;;5057882;28;20021;-81
2021/11/21 02:11:08;;;;;;;11.07;8.88;;;12.50;76.20;;;;;;5038545;28;20064;-81
2021/11/21 02:13:34;;;;;;;10.85;8.85;;;12.50;76.20;;;;;;5056481;28;20079;-81
2021/11/21 02:16:00;;;;;;;11.32;9.07;;;12.50;76.20;;;;;;5040606;28;20029;-81
2021/11/21 02:18:26;;;;;;;11.23;8.70;;;12.50;76.20;;;;;;5038512;28;20036;-84
2021/11/21 02:20:54;;;;;;;11.43;9.05;;;12.50;76.20;;;;;;5055199;28;20033;-81
2021/11/21 02:23:22;;;;;;;10.35;8.13;;;12.50;76.20;;;;;;5055024;28;20465;-82
2021/11/21 02:25:48;;;;;;;11.10;8.75;;;12.50;76.20;;;;;;5055223;28;20114;-81
2021/11/21 02:28:14;;;;;;;10.25;8.02;;;12.50;76.20;;;;;;5038629;28;20049;-81
2021/11/21 02:30:41;;;;;;;10.60;8.50;;;12.50;76.20;;;;;;5054918;28;20037;-83
2021/11/21 02:33:10;;;;;;;10.88;8.95;;;12.40;76.20;;;;;;5055057;28;20029;-81
2021/11/21 02:35:39;;;;;;;10.68;8.40;;;12.40;76.20;;;;;;5054992;28;20048;-81
2021/11/21 02:38:06;;;;;;;11.15;8.80;;;12.40;76.20;;;;;;5055575;28;20032;-82
2021/11/21 02:40:32;;;;;;;10.05;7.75;;;12.40;76.20;;;;;;5055487;28;20038;-82
2021/11/21 02:42:58;;;;;;;12.70;9.38;;;12.50;76.20;;;;;;5054864;28;20025;-81
2021/11/21 02:45:25;;;;;;;10.32;8.02;;;12.40;76.20;;;;;;5054210;28;20021;-80
2021/11/21 02:47:51;;;;;;;11.02;8.48;;;12.40;76.20;;;;;;5055271;28;20037;-81
2021/11/21 02:50:19;;;;;;;10.45;8.27;;;12.40;76.20;;;;;;5054315;28;20124;-84
2021/11/21 02:52:46;;;;;;;10.98;8.27;;;12.40;76.20;;;;;;5054298;28;20116;-81
2021/11/21 02:55:12;;;;;;;10.70;8.65;;;12.40;76.20;;;;;;5071354;28;20040;-81
2021/11/21 02:57:38;;;;;;;11.77;9.02;;;12.40;76.20;;;;;;5054403;28;20112;-82
2021/11/21 03:00:10;;;;;;;12.25;9.23;;;12.40;76.20;;;;;;5055584;28;20053;-80
2021/11/21 03:02:41;;;;;;;11.45;8.88;;;12.40;76.30;;;;;;5054182;28;20374;-81
2021/11/21 03:05:07;;;;;;;11.23;8.38;;;12.40;76.30;;;;;;5054169;28;20044;-85
2021/11/21 03:07:33;;;;;;;11.25;8.23;;;12.40;76.20;;;;;;5054081;28;20527;-81
2021/11/21 03:09:59;;;;;;;11.07;8.45;;;12.40;76.30;;;;;;5037327;28;20124;-81
2021/11/21 03:12:25;;;;;;;12.82;9.60;;;12.40;76.20;;;;;;5053861;28;20146;-80
2021/11/21 03:14:52;;;;;;;11.45;8.45;;;12.40;76.20;;;;;;5054359;28;20027;-82
2021/11/21 03:17:20;;;;;;;11.57;8.95;;;12.40;76.30;;;;;;5037483;28;20032;-81
2021/11/21 03:19:46;;;;;;;12.55;9.43;;;12.40;76.30;;;;;;5070771;28;20481;-84
2021/11/21 03:22:12;;;;;;;12.50;8.90;;;12.40;76.30;;;;;;5053744;28;20048;-81
2021/11/21 03:24:38;;;;;;;11.48;8.30;;;12.40;76.30;;;;;;5053744;28;20029;-82
2021/11/21 03:27:04;;;;;;;11.45;8.70;;;12.40;76.30;;;;;;5052910;28;20029;-81
2021/11/21 03:29:30;;;;;;;11.75;9.32;;;12.40;76.30;;;;;;5053901;28;20032;-83
2021/11/21 03:31:56;;;;;;;11.35;9.07;;;12.40;76.30;;;;;;5053705;28;20033;-81
2021/11/21 03:34:22;;;;;;;10.52;8.15;;;12.40;76.30;;;;;;5053283;28;20068;-81
2021/11/21 03:36:48;;;;;;;12.48;8.95;;;12.40;76.30;;;;;;5036997;28;20381;-81
2021/11/21 03:39:14;;;;;;;11.38;8.68;;;12.40;76.30;;;;;;5053377;28;20373;-81
2021/11/21 03:41:40;;;;;;;11.95;8.85;;;12.40;76.30;;;;;;5053152;28;20033;-81
2021/11/21 03:44:07;;;;;;;12.38;9.38;;;12.40;76.30;;;;;;5053525;28;20029;-81
2021/11/21 03:46:34;;;;;;;12.05;8.52;;;12.30;76.30;;;;;;5054861;28;20067;-81
2021/11/21 03:49:00;;;;;;;12.77;9.60;;;12.40;76.30;;;;;;5053289;28;20124;-81
2021/11/21 03:51:26;;;;;;;11.88;8.73;;;12.40;76.30;;;;;;5037580;28;20163;-81
2021/11/21 03:53:52;;;;;;;12.13;8.85;;;12.30;76.30;;;;;;5053384;28;20086;-83
2021/11/21 03:56:18;;;;;;;13.68;9.45;;;12.40;76.40;;;;;;5052993;28;20484;-82
2021/11/21 03:58:44;;;;;;;12.20;9.23;;;12.40;76.30;;;;;;5054162;28;20033;-82
2021/11/21 04:01:10;;;;;;;11.50;8.55;;;12.30;76.30;;;;;;5053034;28;20032;-83
2021/11/21 04:03:37;;;;;;;12.50;9.18;;;12.30;76.30;;;;;;5053417;28;20040;-80
2021/11/21 04:06:03;;;;;;;11.77;8.75;;;12.40;76.30;;;;;;5053462;28;20029;-82
2021/11/21 04:08:28;;;;;;;12.05;8.82;;;12.30;76.30;;;;;;5053436;28;20025;-81
2021/11/21 04:10:54;;;;;;;11.32;8.40;;;12.40;76.30;;;;;;5053613;28;20506;-81
2021/11/21 04:13:23;;;;;;;12.52;9.13;;;12.30;76.30;;;;;;5052891;28;20036;-81
2021/11/21 04:15:49;;;;;;;12.98;9.40;;;12.30;76.30;;;;;;5053036;28;20075;-81
2021/11/21 04:18:15;;;;;;;12.27;9.05;;;12.30;76.30;;;;;;5052950;28;20409;-81
2021/11/21 04:20:41;;;;;;;11.95;8.73;;;12.30;76.90;;;;;;5054476;28;20127;-82
2021/11/21 04:23:07;;;;;;;11.85;8.75;;;12.30;76.30;;;;;;5053125;28;20079;-81
2021/11/21 04:25:33;;;;;;;12.63;9.23;;;12.30;76.30;;;;;;5053685;28;20388;-81
2021/11/21 04:27:59;;;;;;;11.98;8.88;;;12.30;76.30;;;;;;5052716;28;20029;-80
2021/11/21 04:30:25;;;;;;;12.35;9.02;;;12.30;76.30;;;;;;5052839;28;20025;-81
2021/11/21 04:32:51;;;;;;;12.50;8.98;;;12.30;76.30;;;;;;5053325;28;20041;-82
2021/11/21 04:35:19;;;;;;;12.77;8.68;;;12.30;76.30;;;;;;5036166;28;20057;-81
2021/11/21 04:37:46;;;;;;;12.73;8.77;;;12.30;76.30;;;;;;5053671;28;20027;-81
2021/11/21 04:40:13;;;;;;;13.00;8.98;;;12.30;76.30;;;;;;5057343;28;20033;-81
2021/11/21 04:42:39;;;;;;;12.55;8.68;;;12.30;76.40;;;;;;5040574;28;20120;-81
2021/11/21 04:45:08;;;;;;;12.07;9.20;;;12.30;76.40;;;;;;5056733;28;20116;-80
2021/11/21 04:47:34;;;;;;;12.52;8.77;;;12.30;76.40;;;;;;5073421;28;20474;-81
2021/11/21 04:50:00;;;;;;;12.25;9.30;;;12.30;76.30;;;;;;5040316;28;20036;-80
2021/11/21 04:52:26;;;;;;;11.55;8.35;;;12.30;76.30;;;;;;5057013;28;20038;-82
2021/11/21 04:54:52;;;;;;;12.13;8.48;;;12.30;76.30;;;;;;5057645;28;20378;-82
2021/11/21 04:57:18;;;;;;;11.48;8.38;;;12.30;76.40;;;;;;5039778;28;20462;-81
2021/11/21 04:59:44;;;;;;;11.60;8.57;;;12.30;77.00;;;;;;5057652;28;20524;-83
2021/11/21 05:02:10;;;;;;;12.27;8.25;;;12.30;76.30;;;;;;5056524;28;20029;-81
2021/11/21 05:04:36;;;;;;;10.52;7.57;;;12.30;76.40;;;;;;5056572;28;20135;-80
2021/11/21 05:07:02;;;;;;;10.43;7.90;;;12.30;76.40;;;;;;5055984;28;20040;-80
2021/11/21 05:09:28;;;;;;;11.05;8.35;;;12.30;76.40;;;;;;5057604;28;20484;-81
2021/11/21 05:11:54;;;;;;;11.65;8.35;;;12.30;76.40;;;;;;5057151;28;20037;-79
2021/11/21 05:14:21;;;;;;;10.95;8.25;;;12.30;76.40;;;;;;5056589;28;20032;-80
2021/11/21 05:16:48;;;;;;;11.07;8.27;;;12.30;76.40;;;;;;5056403;28;20044;-81
2021/11/21 05:19:14;;;;;;;10.75;8.20;;;12.30;76.40;;;;;;5056005;28;20040;-80
2021/11/21 05:21:40;;;;;;;10.25;7.65;;;12.30;76.40;;;;;;5056009;28;20525;-80
2021/11/21 05:24:07;;;;;;;10.73;7.80;;;12.30;76.40;;;;;;5072388;28;20155;-81
2021/11/21 05:26:32;;;;;;;10.55;7.40;;;12.30;76.40;;;;;;5072728;28;20025;-80
2021/11/21 05:28:58;;;;;;;11.00;7.72;;;12.30;76.40;;;;;;5056231;28;20039;-81
2021/11/21 05:31:27;;;;;;;12.57;8.57;;;12.30;76.40;;;;;;5056137;28;20392;-81
2021/11/21 05:33:53;;;;;;;10.70;7.53;;;12.30;76.40;;;;;;5055407;28;20025;-80
2021/11/21 05:36:20;;;;;;;10.50;7.78;;;12.30;76.40;;;;;;5055817;28;20087;-82
2021/11/21 05:38:45;;;;;;;11.00;7.95;;;12.30;76.40;;;;;;5022904;28;20033;-82
2021/11/21 05:41:12;;;;;;;9.80;7.30;;;12.30;77.00;;;;;;5055383;28;20040;-81
2021/11/21 05:43:38;;;;;;;11.30;8.02;;;12.30;76.40;;;;;;5055469;28;20035;-81
2021/11/21 05:46:04;;;;;;;9.75;7.10;;;12.30;76.40;;;;;;5056551;28;20059;-81
2021/11/21 05:48:30;;;;;;;10.60;7.45;;;12.30;76.40;;;;;;5055223;28;20381;-82
2021/11/21 05:50:56;;;;;;;9.93;6.88;;;12.30;76.40;;;;;;5054514;28;20029;-81
2021/11/21 05:53:22;;;;;;;8.75;6.90;;;12.30;76.40;;;;;;5055473;28;20025;-81
2021/11/21 05:55:48;;;;;;;10.25;7.68;;;12.30;76.40;;;;;;5039077;28;20029;-82
2021/11/21 05:58:15;;;;;;;9.80;7.25;;;12.30;76.40;;;;;;5055228;28;20377;-80
2021/11/21 06:00:41;;;;;;;9.30;6.85;;;12.30;76.40;;;;;;5055047;28;20025;-81
2021/11/21 06:03:07;;;;;;;10.20;6.95;;;12.30;76.40;;;;;;5038576;28;20021;-81
2021/11/21 06:05:33;;;;;;;9.80;6.82;;;12.30;76.40;;;;;;5055287;28;20488;-81
2021/11/21 06:07:59;;;;;;;9.73;7.35;;;12.30;76.40;;;;;;5055072;28;20507;-81
2021/11/21 06:10:25;;;;;;;8.75;5.85;;;12.30;76.40;;;;;;5055352;28;20029;-81
2021/11/21 06:12:51;;;;;;;8.35;6.13;;;12.30;76.40;;;;;;5055119;28;20033;-81
2021/11/21 06:15:17;;;;;;;8.18;6.18;;;12.30;76.40;;;;;;5055349;28;20053;-81
2021/11/21 06:17:45;;;;;;;8.98;6.57;;;12.20;76.40;;;;;;5055902;28;20434;-81
2021/11/21 06:20:13;;;;;;;8.68;6.20;;;12.30;76.40;;;;;;5055264;28;20036;-81
2021/11/21 06:22:39;;;;;;;8.63;6.10;;;12.30;76.40;;;;;;5054581;28;20033;-80
2021/11/21 06:25:06;;;;;;;8.85;6.10;;;12.30;76.40;;;;;;5054948;28;20075;-80
2021/11/21 06:27:32;;;;;;;8.30;5.78;;;12.30;76.40;;;;;;5055976;28;20075;-80
2021/11/21 06:29:58;;;;;;;6.68;4.97;;;12.30;76.60;;;;;;5054874;28;20058;-81
2021/11/21 06:32:23;;;;;;;7.72;5.32;;;12.30;76.40;;;;;;5054809;28;20076;-81
2021/11/21 06:34:49;;;;;;;7.53;5.43;;;12.30;76.40;;;;;;5054648;28;20059;-81
2021/11/21 06:37:15;;;;;;;8.23;5.90;;;12.30;76.40;;;;;;5037891;28;20478;-83
2021/11/21 06:39:41;;;;;;;8.50;5.50;;;12.30;76.40;;;;;;5054242;28;20036;-79
2021/11/21 06:42:11;;;;;;;8.32;5.57;;;12.30;76.40;;;;;;5054291;28;20025;-82
2021/11/21 06:44:37;;;;;;;7.47;5.13;;;12.30;76.40;;;;;;5055693;28;20040;-80
2021/11/21 06:47:03;;;;;;;7.88;5.38;;;12.30;76.40;;;;;;5038057;28;20074;-81
2021/11/21 06:49:29;;;;;;;7.50;5.10;;;12.30;76.40;;;;;;5054660;28;20098;-81
2021/11/21 06:51:55;;;;;;;6.93;4.90;;;12.30;76.40;;;;;;5054338;28;20123;-81
2021/11/21 06:54:21;;;;;;;6.95;4.88;;;12.30;76.40;;;;;;5054246;28;20041;-80
2021/11/21 06:56:48;;;;;;;7.25;4.85;;;12.20;76.40;;;;;;5037571;28;20033;-80
2021/11/21 06:59:13;;;;;;;7.82;5.00;;;12.30;76.40;;;;;;5038019;28;20094;-81
2021/11/21 07:01:41;;;;;;;7.22;5.00;;;12.30;76.40;;;;;;5055385;28;20458;-80
2021/11/21 07:04:07;;;;;;;7.15;5.00;;;12.30;76.40;;;;;;5054227;28;20029;-81
2021/11/21 07:06:39;;;;;;;6.40;4.38;;;12.30;76.40;;;;;;5070859;28;20032;-80
2021/11/21 07:09:09;;;;;;;6.60;4.57;;;12.30;76.40;;;;;;5053643;28;20124;-80
2021/11/21 07:11:35;;;;;;;6.57;4.78;;;12.30;76.40;;;;;;5053896;28;20071;-80
2021/11/21 07:14:02;;;;;;;6.25;4.10;;;12.30;76.40;;;;;;5053906;28;20037;-80
2021/11/21 07:16:28;;;;;;;6.38;4.40;;;12.20;76.30;;;;;;5054816;28;20029;-80
2021/11/21 07:18:54;;;;;;;6.97;4.90;;;12.20;76.30;;;;;;5053772;28;20170;-81
2021/11/21 07:21:20;;;;;;;6.93;4.85;;;12.20;76.40;;;;;;5053743;28;20021;-80
2021/11/21 07:23:46;;;;;;;6.60;4.72;;;12.20;76.40;;;;;;5070181;28;20123;-81
2021/11/21 07:26:12;;;;;;;6.57;4.43;;;12.20;76.40;;;;;;5037018;28;20424;-81
2021/11/21 07:28:38;;;;;;;6.22;4.28;;;12.30;76.40;;;;;;5053821;28;20025;-81
2021/11/21 07:31:05;;;;;;;6.55;4.28;;;12.20;76.40;;;;;;5054094;28;20040;-81
2021/11/21 07:33:31;;;;;;;5.57;3.90;;;12.20;76.40;;;;;;5070297;28;20032;-81
2021/11/21 07:35:56;;;;;;;6.10;4.13;;;12.20;76.40;;;;;;5070462;28;20048;-80
2021/11/21 07:38:23;;;;;;;6.70;4.45;;;12.20;76.40;;;;;;5037345;28;20029;-81
2021/11/21 07:40:52;;;;;;;5.68;4.13;;;12.20;76.40;;;;;;5053848;28;20029;-80
2021/11/21 07:43:18;;;;;;;5.30;3.50;;;12.20;76.40;;;;;;5053430;28;20025;-82
2021/11/21 07:45:44;;;;;;;5.72;3.75;;;12.20;76.40;;;;;;5054405;28;20473;-83
2021/11/21 07:48:10;;;;;;;5.22;3.72;;;12.20;76.40;;;;;;5053151;28;20025;-81
2021/11/21 07:50:35;;;;;;;5.75;3.90;;;12.20;76.40;;;;;;5053555;28;20032;-81
2021/11/21 07:53:01;;;;;;;5.32;3.67;;;12.20;76.40;;;;;;5053198;28;20044;-80
2021/11/21 07:55:27;;;;;;;4.43;3.05;;;12.20;76.40;;;;;;5053116;28;20029;-80
2021/11/21 07:57:53;;;;;;;6.50;4.07;;;12.20;76.40;;;;;;5053311;28;20035;-81
2021/11/21 08:00:19;;;;;;;5.95;4.10;;;12.20;76.40;;;;;;5053457;28;20064;-81
2021/11/21 08:02:44;;;;;;;5.40;3.85;;;12.20;76.40;;;;;;5036464;28;20040;-81
2021/11/21 08:05:11;;;;;;;4.97;3.17;;;12.20;76.40;;;;;;5053153;28;20029;-80
2021/11/21 08:07:38;;;;;;;6.38;3.95;;;12.20;76.40;;;;;;5053170;28;20037;-81
2021/11/21 08:10:05;;;;;;;5.50;3.47;;;12.20;76.40;;;;;;5052741;28;20025;-80
2021/11/21 08:12:31;;;;;;;4.97;3.28;;;12.20;76.40;;;;;;5036636;28;20037;-80
2021/11/21 08:14:57;;;;;;;5.03;3.38;;;12.20;76.40;;;;;;5070398;28;20116;-81
2021/11/21 08:17:23;;;;;;;5.13;3.40;;;12.20;76.40;;;;;;5052997;28;20025;-81
2021/11/21 08:19:49;;;;;;;5.40;3.08;;;12.20;76.40;;;;;;5053196;28;20485;-81
2021/11/21 08:22:15;;;;;;;4.88;3.13;;;12.20;76.40;;;;;;5036229;28;20127;-79
2021/11/21 08:24:41;;;;;;;4.95;3.22;;;12.20;76.40;;;;;;5054298;28;20029;-80
2021/11/21 08:27:07;;;;;;;4.22;2.88;;;12.20;76.40;;;;;;5052554;28;20021;-85
2021/11/21 08:29:33;;;;;;;4.63;2.95;;;12.20;76.50;;;;;;5069601;28;20032;-80
2021/11/21 08:32:03;;;;;;;4.70;2.97;;;12.20;76.50;;;;;;5052592;28;20029;-80
2021/11/21 08:34:29;;;;;;;5.55;3.00;;;12.20;76.50;;;;;;5035616;28;20053;-82
2021/11/21 08:36:55;;;;;;;4.50;2.65;;;12.20;76.50;;;;;;5036132;28;20485;-81
2021/11/21 08:39:23;;;;;;;4.00;2.72;;;12.20;76.50;;;;;;5053963;28;20040;-81
2021/11/21 08:41:50;;;;;;;4.30;2.95;;;12.20;76.50;;;;;;5068914;28;20033;-81
2021/11/21 08:44:16;;;;;;;4.40;2.90;;;12.20;76.50;;;;;;5052230;28;20037;-80
2021/11/21 08:46:42;;;;;;;5.07;2.83;;;12.20;76.50;;;;;;5052595;28;20124;-81
2021/11/21 08:49:08;;;;;;;3.60;2.40;;;12.20;76.50;;;;;;5052709;28;20179;-81
2021/11/21 08:51:34;;;;;;;3.83;2.60;;;12.20;76.50;;;;;;5053527;28;20040;-80
2021/11/21 08:54:00;;;;;;;3.67;2.10;;;12.20;76.50;;;;;;5035969;28;20040;-81
2021/11/21 08:56:26;;;;;;;3.97;2.60;;;12.20;76.50;;;;;;5052274;28;20054;-83
2021/11/21 08:58:52;;;;;;;3.17;2.30;;;12.20;76.50;;;;;;5053294;28;20329;-81
2021/11/21 09:01:17;;;;;;;4.68;2.55;;;12.20;76.50;;;;;;5052171;28;20029;-83
2021/11/21 09:03:43;;;;;;;2.92;2.08;;;12.20;76.50;;;;;;5053214;28;20041;-80
2021/11/21 09:06:09;;;;;;;4.30;2.60;;;12.20;76.50;;;;;;5052330;28;20026;-81
2021/11/21 09:08:35;;;;;;;3.53;2.20;;;12.20;76.50;;;;;;5052529;28;20029;-82
2021/11/21 09:11:01;;;;;;;2.63;1.83;;;12.20;76.50;;;;;;5051963;28;20060;-82
2021/11/21 09:13:27;;;;;;;3.75;2.33;;;12.20;76.50;;;;;;5052064;28;20083;-80
2021/11/21 09:15:54;;;;;;;4.82;2.22;;;12.30;76.60;;;;;;5052138;28;20026;-81
2021/11/21 09:18:24;;;;;;;4.15;2.40;;;12.30;76.60;;;;;;5052377;28;20393;-82
2021/11/21 09:20:57;;;;;;;3.50;2.20;;;12.30;76.60;;;;;;5052856;28;20079;-80
2021/11/21 09:23:24;;;;;;;2.65;1.77;;;12.30;76.60;;;;;;5053383;28;20115;-80
2021/11/21 09:25:52;;;;;;;2.85;1.83;;;12.20;76.50;;;;;;5057110;28;20044;-80
2021/11/21 09:28:20;;;;;;;3.08;2.10;;;12.30;76.60;;;;;;5056254;28;20124;-80
2021/11/21 09:30:46;;;;;;;3.45;1.98;;;12.30;76.60;;;;;;5057331;28;20159;-79
2021/11/21 09:33:12;;;;;;;2.72;1.80;;;12.30;76.60;;;;;;5055381;28;20033;-79
2021/11/21 09:35:38;;;;;;;3.30;1.75;;;12.30;76.60;;;;;;5055906;28;20477;-82
2021/11/21 09:38:05;;;;;;;2.38;1.83;;;12.30;76.60;;;;;;5072375;28;20039;-80
2021/11/21 09:40:31;;;;;;;2.83;1.58;;;12.30;76.60;;;;;;5056168;28;20028;-81
2021/11/21 09:42:56;;;;;;;2.47;1.65;;;12.30;76.60;;;;;;5055472;28;20460;-78
2021/11/21 09:45:22;;;;;;;3.05;1.98;;;12.30;76.60;;;;;;5057093;28;20033;-79
2021/11/21 09:47:51;;;;;;;2.65;1.60;;;12.30;76.60;;;;;;5056272;28;20040;-80
2021/11/21 09:50:20;;;;;;;2.70;1.60;;;12.30;76.60;;;;;;5071792;28;20374;-80
2021/11/21 09:52:46;;;;;;;2.72;1.75;;;12.40;76.70;;;;;;5055524;28;20037;-80
2021/11/21 09:55:11;;;;;;;2.13;1.30;;;12.30;76.60;;;;;;5055296;28;20021;-80
2021/11/21 09:57:38;;;;;;;3.28;1.80;;;12.30;76.60;;;;;;5071541;28;20021;-81
2021/11/21 10:00:27;;;;;;;2.47;1.67;;;12.30;76.60;;;;;;5055323;28;20504;-80
2021/11/21 10:03:19;;;;;;;2.97;1.50;;;12.30;76.60;;;;;;5072165;28;20029;-80
2021/11/21 10:05:53;;;;;;;1.45;1.17;;;12.40;76.70;;;;;;5057134;28;20037;-81
2021/11/21 10:08:24;;;;;;;2.67;1.58;;;12.40;76.60;;;;;;5056422;28;20481;-82
2021/11/21 10:10:59;;;;;;;1.95;1.60;;;12.40;76.60;;;;;;5061744;28;20021;-79
2021/11/21 10:13:28;;;;;;;;;;;12.40;76.70;;;;;;5057722;28;20033;-80
2021/11/21 10:15:54;;;;;;;2.15;1.40;;;12.40;76.60;;;;;;5056222;28;19905;-80
2021/11/21 10:18:20;;;;;;;2.35;1.33;;;12.40;76.50;;;;;;5057472;28;20446;-78
2021/11/21 10:20:46;;;;;;;1.80;1.30;;;12.40;76.60;;;;;;5056367;28;20021;-81
2021/11/21 10:23:13;;;;;;;1.92;1.30;;;12.40;76.60;;;;;;5056361;28;20036;-81
2021/11/21 10:25:45;;;;;;;2.55;1.42;;;12.30;76.60;;;;;;5056049;28;20100;-80
2021/11/21 10:28:28;;;;;;;2.95;1.60;;;12.40;76.70;;;;;;5054980;28;20064;-82
2021/11/21 10:31:08;;;;;;;2.55;1.30;;;12.40;76.80;;;;;;5055120;28;20377;-79
2021/11/21 10:33:45;;;;;;;2.50;1.23;;;12.40;76.60;;;;;;5054624;28;20036;-79
2021/11/21 10:36:13;;;;;;;1.45;1.25;;;12.40;76.70;;;;;;5055403;28;20041;-82
2021/11/21 10:38:49;;;;;;;2.83;1.40;;;12.40;76.60;;;;;;5056547;28;20037;-81
2021/11/21 10:41:21;;;;;;;2.47;1.33;;;12.40;76.60;;;;;;5054437;28;20033;-77
2021/11/21 10:44:02;;;;;;;1.70;1.20;;;12.40;76.60;;;;;;5054851;28;20024;-80
2021/11/21 10:46:39;;;;;;;1.40;1.13;;;12.40;76.70;;;;;;5054668;28;20075;-79
2021/11/21 10:49:27;;;;;;;2.42;1.30;;;12.40;76.70;;;;;;5071581;28;20032;-81
2021/11/21 10:52:02;;;;;;;3.28;1.20;;;12.40;76.70;;;;;;5071457;28;20104;-81
2021/11/21 10:54:36;;;;;;;1.90;1.10;;;12.40;76.60;;;;;;5054102;28;20033;-81
2021/11/21 10:57:04;;;;;;;;;;;12.40;76.60;;;;;;5055097;28;20033;-80
2021/11/21 10:59:39;;;;;;;1.10;1.00;;;12.40;76.50;;;;;;5055649;28;19944;-80
2021/11/21 11:02:29;;;;;;;2.67;0.95;;;12.40;76.50;;;;;;5055355;28;20040;-80
2021/11/21 11:05:07;;;;;;;2.58;1.20;;;12.40;76.60;;;;;;5066051;28;20028;-79
2021/11/21 11:07:44;;;;;;;2.17;1.17;;;12.40;76.60;;;;;;5054273;28;20037;-80
2021/11/21 11:10:23;;;;;;;1.50;0.93;;;12.40;76.70;;;;;;5055578;28;20025;-79
2021/11/21 11:13:11;;;;;;;1.63;1.10;;;12.40;76.70;;;;;;5054155;28;20076;-80
2021/11/21 11:15:39;;;;;;;2.17;1.20;;;12.40;76.80;;;;;;5054516;28;20029;-82
2021/11/21 11:18:07;;;;;;;1.70;1.08;;;12.30;77.20;;;;;;5054581;28;20033;-82
2021/11/21 11:20:40;;;;;;;1.33;1.00;;;12.30;76.50;;;;;;5070794;28;20469;-80
2021/11/21 11:23:06;;;;;;;2.28;1.10;;;12.30;76.60;;;;;;5054084;28;20041;-81
2021/11/21 11:25:35;;;;;;;0.85;0.85;;;12.40;76.60;;;;;;5070568;28;20029;-82
2021/11/21 11:28:25;;;;;;;2.40;1.23;;;12.30;76.50;;;;;;5053816;28;20025;-81
2021/11/21 11:30:52;;;;;;;1.52;1.23;;;12.40;76.70;;;;;;5054291;28;20033;-80
2021/11/21 11:33:20;;;;;;;1.85;1.10;;;12.30;76.50;;;;;;5070259;28;20025;-81
2021/11/21 11:35:55;;;;;;;1.48;1.30;;;12.40;76.70;;;;;;5069882;28;20041;-81
2021/11/21 11:38:28;;;;;;;1.27;1.17;;;12.30;76.50;;;;;;5053727;28;20025;-81
2021/11/21 11:40:56;;;;;;;2.00;1.13;;;12.40;76.60;;;;;;5053255;28;20039;-80
2021/11/21 11:43:27;;;;;;;1.65;1.17;;;12.30;76.40;;;;;;5053478;28;20440;-80
2021/11/21 11:45:55;;;;;;;1.58;1.00;;;12.30;76.40;;;;;;5053069;28;20033;-81
2021/11/21 11:48:36;;;;;;;2.60;1.15;;;12.30;76.40;;;;;;5053621;28;20021;-82
2021/11/21 11:51:06;;;;;;;2.58;1.20;;;12.30;76.50;;;;;;5053642;28;20041;-82
2021/11/21 11:53:41;;;;;;;1.45;1.20;;;12.30;76.50;;;;;;5053143;28;20029;-81
2021/11/21 11:56:10;;;;;;;;;;;12.30;76.50;;;;;;5054217;28;20370;-80
2021/11/21 11:58:55;;;;;;;1.83;1.00;;;12.30;76.40;;;;;;5053147;28;19955;-80
2021/11/21 12:01:39;;;;;;;0.80;0.80;;;12.30;76.40;;;;;;5053758;28;20055;-80
2021/11/21 12:04:10;;;;;;;1.40;0.85;;;12.20;76.50;;;;;;5053261;28;20044;-77
2021/11/21 12:06:41;;;;;;;2.25;1.00;;;12.30;76.50;;;;;;5054128;28;20124;-79
2021/11/21 12:09:16;;;;;;;1.65;1.00;;;12.20;76.50;;;;;;5054162;28;20083;-79
2021/11/21 12:11:56;;;;;;;1.58;1.02;;;12.30;76.60;;;;;;5052664;28;20044;-79
2021/11/21 12:14:35;;;;;;;2.47;1.10;;;12.30;76.60;;;;;;5069676;28;20112;-80
2021/11/21 12:17:25;;;;;;;2.40;1.23;;;12.30;76.50;;;;;;5053843;28;20036;-79
2021/11/21 12:19:53;;;;;;;2.13;1.20;;;12.30;76.50;;;;;;5052425;28;20059;-79
2021/11/21 12:22:34;;;;;;;2.58;1.00;;;12.30;76.50;;;;;;5036114;28;20453;-79
2021/11/21 12:25:25;;;;;;;1.65;1.02;;;12.30;76.50;;;;;;5053079;28;20098;-79
2021/11/21 12:28:00;;;;;;;2.08;1.02;;;12.30;76.50;;;;;;5052621;28;20029;-78
2021/11/21 12:30:32;;;;;;;1.98;1.05;;;12.40;76.60;;;;;;5052540;28;20025;-78
2021/11/21 12:33:03;;;;;;;1.15;0.82;;;12.30;76.40;;;;;;5052651;28;20032;-77
2021/11/21 12:35:49;;;;;;;1.40;1.20;;;12.40;76.50;;;;;;5052364;28;20409;-78
2021/11/21 12:38:21;;;;;;;2.28;1.05;;;12.40;76.60;;;;;;5052464;28;20491;-79
2021/11/21 12:40:59;;;;;;;1.42;1.00;;;12.40;76.50;;;;;;5052303;28;20029;-78
2021/11/21 12:43:26;;;;;;;2.85;1.42;;;12.40;76.50;;;;;;5053210;28;20029;-78
2021/11/21 12:45:55;;;;;;;1.17;0.82;;;12.40;76.50;;;;;;5053245;28;20040;-78
2021/11/21 12:48:26;;;;;;;2.03;1.00;;;12.40;76.50;;;;;;5052170;28;20025;-79